METAR KO57 181655Z AUTO 29004KT 10SM 10/M02 A3038


AIRPORT ID: O57

DATE(M/D/Y): 4/18/2019 16:55 Z 9:55 L


WIND DIRECT: 310

WIND SPEED: 4 KT

WIND CONDITIONS:

VISIBILTY: 10 SM 9999 M

TEMPERATURE: 50 F 10 C

DEW POINT: 28 F -2 C

ALTIMETER: A3038 Q1029

DENSITY ALT: 6800 FT

HUMID: 43%

LCL: Above 5,000 FT


RADIO CHECK: 0

ADVISORIES: 0

GREETINGS: 0

CONVERSATIONS: 19